« Back
NWS Peachtree City, Ga » Text Product » AHN Terminal Aerodrome Forecast


Printer-friendly Version
Current Version              Previous Versions:   1  2  3  4  5  6  7  8  9  

Terminal Aerodrome Forecast

455
FTUS42 KFFC 180500
TAFAHN
TAF
KAHN 180529Z 1806/1906 08004KT 6SM BR SCT005 OVC010
      TEMPO 1806/1809 4SM BR BKN005
     FM180900 08003KT 4SM BR OVC005
     FM181300 07004KT 6SM BR BKN008
     FM181500 08005KT P6SM SCT025
     FM181800 09006KT P6SM SCT045=

USA.gov is the U.S. government's official web portal to all federal, state and local government web resources and services.